Station Historical Data
Daily Summary for March 9, 2012 Units:  English    Metric   Both
« Previous Day
Next Day »
Daily Weekly Monthly Yearly Custom
  High: Low: Average:
Temperature: 58.2 °F 37.7 °F 46.4 °F
Dew Point: 41.4 °F 25.7 °F 32.4 °F
Humidity: 96% 33% 62%
Wind Speed: 20.0mph 2.0mph 8.3mph
Wind Gust: 20.0mph - -
Wind- - SSE
Pressure: 30.42 in 30.23 in -
Precipitation: 0.01 in    
Historical Graphs
 
 
Tabular Data for March 9, 2012
Time Temperature Dew Point Pressure Wind Wind Speed Wind Gust Humidity Rainfall Rate (Hourly) Conditions
00:00 42.7 °F 41.4 °F 30.23 in North 10.0 mph 12.0 mph 95% 0.30 in
00:01 42.6 °F 41.3 °F 30.23 in North 6.0 mph 11.0 mph 95% 0.30 in
00:06 42.4 °F 41.1 °F 30.24 in NNW 5.0 mph 8.0 mph 95% 0.28 in
00:11 42.2 °F 41.1 °F 30.26 in NW 7.0 mph 12.0 mph 96% 0.32 in
00:16 42.1 °F 41.0 °F 30.26 in NW 8.0 mph 11.0 mph 96% 0.42 in
00:21 42.0 °F 40.9 °F 30.26 in NNW 5.0 mph 9.0 mph 96% 0.22 in
00:26 41.8 °F 40.8 °F 30.25 in NW 8.0 mph 12.0 mph 96% 0.30 in
00:31 41.5 °F 40.5 °F 30.25 in NNE 9.0 mph 13.0 mph 96% 0.22 in
00:36 41.2 °F 39.9 °F 30.24 in NNE 6.0 mph 12.0 mph 95% 0.18 in
00:42 40.8 °F 39.5 °F 30.24 in NE 8.0 mph 9.0 mph 95% 0.20 in
00:47 40.7 °F 39.4 °F 30.24 in NE 6.0 mph 7.0 mph 95% 0.13 in
00:52 40.6 °F 39.3 °F 30.24 in NNE 5.0 mph 9.0 mph 95% 0.11 in
00:57 40.5 °F 39.2 °F 30.24 in NW 5.0 mph 7.0 mph 95% 0.10 in
01:02 40.5 °F 39.2 °F 30.25 in NNE 9.0 mph 14.0 mph 95% 0.05 in
01:07 40.4 °F 38.8 °F 30.25 in North 7.0 mph 15.0 mph 94% 0.04 in
01:12 40.4 °F 38.8 °F 30.25 in NNW 3.0 mph 9.0 mph 94% 0.04 in
01:17 40.4 °F 38.8 °F 30.24 in ENE 7.0 mph 10.0 mph 94% 0.04 in
01:22 40.4 °F 38.8 °F 30.24 in NE 4.0 mph 7.0 mph 94% 0.04 in
01:27 40.5 °F 38.9 °F 30.25 in NNE 9.0 mph 9.0 mph 94% 0.00 in
01:32 40.5 °F 38.9 °F 30.25 in NNW 7.0 mph 11.0 mph 94% 0.00 in
01:37 40.6 °F 39.0 °F 30.25 in North 7.0 mph 12.0 mph 94% 0.00 in
01:42 40.6 °F 39.0 °F 30.25 in North 6.0 mph 12.0 mph 94% 0.00 in
01:47 40.6 °F 39.0 °F 30.25 in North 11.0 mph 12.0 mph 94% 0.00 in
01:52 40.6 °F 39.0 °F 30.25 in NNE 8.0 mph 11.0 mph 94% 0.00 in
01:57 40.7 °F 39.1 °F 30.25 in NE 8.0 mph 13.0 mph 94% 0.00 in
02:02 40.7 °F 38.8 °F 30.25 in North 8.0 mph 10.0 mph 93% 0.00 in
02:07 40.7 °F 38.8 °F 30.25 in NNE 7.0 mph 14.0 mph 93% 0.00 in
02:12 40.7 °F 38.6 °F 30.24 in NNW 5.0 mph 11.0 mph 92% 0.00 in
02:17 40.8 °F 38.7 °F 30.24 in NNE 6.0 mph 11.0 mph 92% 0.00 in
02:22 40.8 °F 38.4 °F 30.24 in NNE 5.0 mph 15.0 mph 91% 0.00 in
02:27 40.8 °F 38.4 °F 30.24 in NNE 9.0 mph 15.0 mph 91% 0.00 in
02:32 40.9 °F 38.5 °F 30.24 in NNE 10.0 mph 13.0 mph 91% 0.00 in
02:37 40.9 °F 38.5 °F 30.24 in NNE 10.0 mph 15.0 mph 91% 0.00 in
02:42 40.9 °F 38.5 °F 30.24 in NNW 9.0 mph 17.0 mph 91% 0.00 in
02:47 40.8 °F 38.7 °F 30.24 in NNE 10.0 mph 10.0 mph 92% 0.00 in
02:52 40.7 °F 38.6 °F 30.23 in NW 9.0 mph 12.0 mph 92% 0.00 in
02:57 40.7 °F 38.3 °F 30.24 in NNW 8.0 mph 17.0 mph 91% 0.00 in
03:02 40.7 °F 38.6 °F 30.24 in NNW 8.0 mph 14.0 mph 92% 0.00 in
03:07 40.7 °F 38.6 °F 30.25 in NNW 9.0 mph 16.0 mph 92% 0.00 in
03:12 40.7 °F 38.6 °F 30.25 in North 12.0 mph 16.0 mph 92% 0.00 in
03:17 40.7 °F 38.6 °F 30.25 in NNW 8.0 mph 12.0 mph 92% 0.00 in
03:22 40.6 °F 38.2 °F 30.25 in North 11.0 mph 17.0 mph 91% 0.00 in
03:28 40.6 °F 38.2 °F 30.25 in NNW 10.0 mph 13.0 mph 91% 0.00 in
03:33 40.6 °F 38.2 °F 30.25 in NNE 7.0 mph 12.0 mph 91% 0.00 in
03:38 40.6 °F 37.9 °F 30.24 in NNE 10.0 mph 12.0 mph 90% 0.00 in
03:43 40.6 °F 38.2 °F 30.24 in North 7.0 mph 11.0 mph 91% 0.00 in
03:48 40.5 °F 37.8 °F 30.24 in North 7.0 mph 12.0 mph 90% 0.00 in
03:53 40.4 °F 37.7 °F 30.24 in North 11.0 mph 14.0 mph 90% 0.00 in
03:58 40.4 °F 37.7 °F 30.25 in NNW 9.0 mph 14.0 mph 90% 0.00 in
04:03 40.3 °F 37.6 °F 30.25 in North 16.0 mph 16.0 mph 90% 0.00 in
04:08 40.2 °F 37.5 °F 30.26 in North 11.0 mph 14.0 mph 90% 0.00 in
04:13 40.1 °F 37.4 °F 30.26 in NNW 8.0 mph 15.0 mph 90% 0.00 in
04:18 40.0 °F 37.3 °F 30.27 in NNW 8.0 mph 11.0 mph 90% 0.00 in
04:23 39.9 °F 37.2 °F 30.27 in North 12.0 mph 12.0 mph 90% 0.00 in
04:28 39.9 °F 36.9 °F 30.27 in North 8.0 mph 14.0 mph 89% 0.00 in
04:33 39.8 °F 36.8 °F 30.28 in North 17.0 mph 17.0 mph 89% 0.00 in
04:38 39.7 °F 36.7 °F 30.28 in NNW 6.0 mph 13.0 mph 89% 0.00 in
04:43 39.6 °F 36.6 °F 30.29 in NNE 7.0 mph 14.0 mph 89% 0.00 in
04:48 39.5 °F 36.5 °F 30.29 in NNE 12.0 mph 16.0 mph 89% 0.00 in
04:53 39.4 °F 36.4 °F 30.29 in North 16.0 mph 16.0 mph 89% 0.00 in
04:58 39.4 °F 36.4 °F 30.29 in NNE 15.0 mph 15.0 mph 89% 0.00 in
05:03 39.3 °F 36.3 °F 30.28 in NNW 18.0 mph 18.0 mph 89% 0.00 in
05:08 39.3 °F 36.3 °F 30.28 in NNE 12.0 mph 18.0 mph 89% 0.00 in
05:13 39.2 °F 36.2 °F 30.29 in North 13.0 mph 16.0 mph 89% 0.00 in
05:18 39.2 °F 36.2 °F 30.29 in NNW 9.0 mph 18.0 mph 89% 0.00 in
05:23 39.1 °F 36.1 °F 30.30 in North 12.0 mph 16.0 mph 89% 0.00 in
05:28 39.0 °F 35.8 °F 30.30 in North 13.0 mph 17.0 mph 88% 0.00 in
05:33 39.0 °F 36.0 °F 30.31 in NNW 9.0 mph 15.0 mph 89% 0.00 in
05:38 38.9 °F 35.9 °F 30.32 in NNE 8.0 mph 18.0 mph 89% 0.00 in
05:43 38.8 °F 35.8 °F 30.32 in NNE 12.0 mph 15.0 mph 89% 0.00 in
05:48 38.8 °F 35.6 °F 30.32 in North 7.0 mph 17.0 mph 88% 0.00 in
05:53 38.7 °F 35.5 °F 30.31 in NNW 13.0 mph 15.0 mph 88% 0.00 in
05:58 38.6 °F 35.4 °F 30.32 in North 10.0 mph 19.0 mph 88% 0.00 in
06:03 38.6 °F 35.4 °F 30.33 in NNW 13.0 mph 16.0 mph 88% 0.00 in
06:08 38.5 °F 35.3 °F 30.33 in NNE 17.0 mph 20.0 mph 88% 0.00 in
06:14 38.5 °F 35.3 °F 30.33 in North 11.0 mph 17.0 mph 88% 0.00 in
06:18 38.4 °F 35.2 °F 30.33 in NNE 17.0 mph 17.0 mph 88% 0.00 in
06:24 38.3 °F 35.1 °F 30.33 in NNE 9.0 mph 14.0 mph 88% 0.00 in
06:29 38.2 °F 34.7 °F 30.33 in North 6.0 mph 15.0 mph 87% 0.00 in
06:34 38.1 °F 34.6 °F 30.33 in NNE 9.0 mph 14.0 mph 87% 0.00 in
06:39 38.0 °F 34.5 °F 30.34 in NNW 9.0 mph 16.0 mph 87% 0.00 in
06:44 38.0 °F 34.5 °F 30.34 in North 6.0 mph 16.0 mph 87% 0.00 in
06:49 37.9 °F 34.1 °F 30.35 in North 6.0 mph 16.0 mph 86% 0.00 in
06:54 37.8 °F 34.0 °F 30.35 in NNW 10.0 mph 17.0 mph 86% 0.00 in
06:59 37.9 °F 34.1 °F 30.35 in NNW 13.0 mph 15.0 mph 86% 0.00 in
07:04 37.8 °F 34.0 °F 30.36 in NNE 7.0 mph 16.0 mph 86% 0.00 in
07:09 37.8 °F 33.7 °F 30.36 in NNE 7.0 mph 14.0 mph 85% 0.00 in
07:14 37.7 °F 33.6 °F 30.36 in North 15.0 mph 15.0 mph 85% 0.00 in
07:19 37.7 °F 33.0 °F 30.36 in NNE 13.0 mph 17.0 mph 83% 0.00 in
07:24 37.7 °F 33.0 °F 30.35 in NNE 12.0 mph 14.0 mph 83% 0.00 in
07:29 37.7 °F 33.0 °F 30.36 in NNE 12.0 mph 14.0 mph 83% 0.00 in
07:34 37.7 °F 33.0 °F 30.36 in North 11.0 mph 17.0 mph 83% 0.00 in
07:39 37.8 °F 32.5 °F 30.36 in NNE 5.0 mph 17.0 mph 81% 0.00 in
07:44 37.8 °F 32.8 °F 30.36 in North 16.0 mph 16.0 mph 82% 0.00 in
07:49 37.8 °F 32.5 °F 30.37 in NNW 7.0 mph 15.0 mph 81% 0.00 in
07:54 37.9 °F 32.6 °F 30.37 in North 10.0 mph 13.0 mph 81% 0.00 in
07:59 37.9 °F 32.3 °F 30.38 in North 10.0 mph 15.0 mph 80% 0.00 in
08:04 38.0 °F 32.1 °F 30.38 in NNE 12.0 mph 16.0 mph 79% 0.00 in
08:09 38.1 °F 32.2 °F 30.38 in North 14.0 mph 15.0 mph 79% 0.00 in
08:14 38.2 °F 32.0 °F 30.38 in North 7.0 mph 12.0 mph 78% 0.00 in
08:19 38.3 °F 32.0 °F 30.39 in NNE 7.0 mph 15.0 mph 78% 0.00 in
08:24 38.4 °F 31.8 °F 30.38 in NNE 10.0 mph 15.0 mph 77% 0.00 in
08:29 38.5 °F 31.9 °F 30.38 in NE 8.0 mph 12.0 mph 77% 0.00 in
08:34 38.7 °F 31.8 °F 30.38 in North 8.0 mph 12.0 mph 76% 0.00 in
08:39 38.9 °F 31.7 °F 30.39 in NNE 13.0 mph 14.0 mph 75% 0.00 in
08:44 39.1 °F 31.5 °F 30.39 in NNE 8.0 mph 13.0 mph 74% 0.00 in
08:49 39.4 °F 31.5 °F 30.39 in NE 6.0 mph 12.0 mph 73% 0.00 in
08:54 39.7 °F 31.1 °F 30.39 in NNE 6.0 mph 12.0 mph 71% 0.00 in
08:59 40.0 °F 30.3 °F 30.40 in NNE 8.0 mph 14.0 mph 68% 0.00 in
09:04 40.3 °F 31.3 °F 30.40 in North 6.0 mph 13.0 mph 70% 0.00 in
09:09 40.6 °F 31.2 °F 30.40 in NNE 6.0 mph 16.0 mph 69% 0.00 in
09:14 40.8 °F 30.0 °F 30.40 in North 8.0 mph 14.0 mph 65% 0.00 in
09:20 41.1 °F 29.9 °F 30.40 in NNW 8.0 mph 13.0 mph 64% 0.00 in
09:25 41.3 °F 29.3 °F 30.40 in NNE 7.0 mph 15.0 mph 62% 0.00 in
09:30 41.6 °F 29.6 °F 30.41 in NE 8.0 mph 11.0 mph 62% 0.00 in
09:35 41.9 °F 29.5 °F 30.41 in North 8.0 mph 15.0 mph 61% 0.00 in
09:40 42.2 °F 28.9 °F 30.41 in NNE 7.0 mph 13.0 mph 59% 0.00 in
09:45 42.4 °F 29.5 °F 30.41 in NE 10.0 mph 16.0 mph 60% 0.00 in
09:50 42.5 °F 29.2 °F 30.41 in NNW 5.0 mph 14.0 mph 59% 0.00 in
09:55 42.6 °F 28.9 °F 30.41 in NNE 15.0 mph 18.0 mph 58% 0.00 in
10:00 42.8 °F 29.9 °F 30.41 in NNE 5.0 mph 11.0 mph 60% 0.00 in
10:05 43.0 °F 29.2 °F 30.41 in NNE 6.0 mph 14.0 mph 58% 0.00 in
10:06 43.1 °F 29.3 °F 30.41 in NNW 4.0 mph 14.0 mph 58% 0.00 in
10:11 43.6 °F 29.4 °F 30.41 in NNE 7.0 mph 12.0 mph 57% 0.00 in
10:16 43.9 °F 30.1 °F 30.41 in NNE 8.0 mph 14.0 mph 58% 0.00 in
10:21 44.1 °F 29.0 °F 30.41 in NNE 13.0 mph 15.0 mph 55% 0.00 in
10:26 44.3 °F 29.2 °F 30.41 in North 13.0 mph 16.0 mph 55% 0.00 in
10:31 44.5 °F 28.9 °F 30.41 in North 12.0 mph 17.0 mph 54% 0.00 in
10:36 44.4 °F 27.9 °F 30.42 in NNE 18.0 mph 18.0 mph 52% 0.00 in
10:41 44.4 °F 28.8 °F 30.42 in NNE 13.0 mph 18.0 mph 54% 0.00 in
10:46 44.7 °F 29.5 °F 30.42 in NNE 10.0 mph 15.0 mph 55% 0.00 in
10:51 44.9 °F 30.2 °F 30.42 in NNE 7.0 mph 13.0 mph 56% 0.00 in
10:56 45.3 °F 30.1 °F 30.42 in NNE 13.0 mph 16.0 mph 55% 0.00 in
11:01 45.7 °F 30.9 °F 30.42 in NNW 17.0 mph 17.0 mph 56% 0.00 in
11:06 45.9 °F 30.7 °F 30.42 in North 12.0 mph 16.0 mph 55% 0.00 in
11:11 46.0 °F 29.4 °F 30.42 in NNE 6.0 mph 15.0 mph 52% 0.00 in
11:16 46.7 °F 31.4 °F 30.42 in NNE 13.0 mph 17.0 mph 55% 0.00 in
11:21 46.7 °F 30.5 °F 30.42 in NNE 9.0 mph 17.0 mph 53% 0.00 in
11:26 46.6 °F 29.9 °F 30.41 in NNE 12.0 mph 17.0 mph 52% 0.00 in
11:31 46.8 °F 29.2 °F 30.42 in NE 11.0 mph 18.0 mph 50% 0.00 in
11:36 47.1 °F 29.9 °F 30.41 in NNE 7.0 mph 19.0 mph 51% 0.00 in
11:42 47.7 °F 32.3 °F 30.42 in North 12.0 mph 12.0 mph 55% 0.00 in
11:47 47.8 °F 31.0 °F 30.42 in NNW 6.0 mph 16.0 mph 52% 0.00 in
11:52 48.5 °F 30.7 °F 30.42 in North 11.0 mph 16.0 mph 50% 0.00 in
11:57 49.1 °F 31.8 °F 30.42 in North 11.0 mph 16.0 mph 51% 0.00 in
12:02 49.2 °F 30.4 °F 30.42 in North 12.0 mph 17.0 mph 48% 0.00 in
12:07 49.5 °F 32.1 °F 30.42 in NNW 12.0 mph 14.0 mph 51% 0.00 in
12:12 49.8 °F 30.4 °F 30.41 in NNE 11.0 mph 16.0 mph 47% 0.00 in
12:17 49.7 °F 29.8 °F 30.41 in North 10.0 mph 18.0 mph 46% 0.00 in
12:22 50.1 °F 30.7 °F 30.41 in NNW 11.0 mph 16.0 mph 47% 0.00 in
12:27 50.5 °F 31.0 °F 30.41 in North 10.0 mph 17.0 mph 47% 0.00 in
12:32 50.4 °F 31.0 °F 30.41 in NE 12.0 mph 16.0 mph 47% 0.00 in
12:37 51.2 °F 34.7 °F 30.41 in NNE 10.0 mph 14.0 mph 53% 0.00 in
12:42 51.7 °F 32.1 °F 30.41 in North 15.0 mph 18.0 mph 47% 0.00 in
12:47 51.8 °F 33.3 °F 30.41 in North 9.0 mph 15.0 mph 49% 0.00 in
12:52 52.3 °F 33.2 °F 30.41 in North 13.0 mph 15.0 mph 48% 0.00 in
12:57 52.3 °F 34.7 °F 30.41 in North 13.0 mph 18.0 mph 51% 0.00 in
13:02 52.2 °F 31.0 °F 30.41 in North 9.0 mph 20.0 mph 44% 0.00 in
13:07 52.3 °F 34.2 °F 30.40 in North 11.0 mph 15.0 mph 50% 0.00 in
13:12 52.8 °F 34.7 °F 30.40 in NE 9.0 mph 12.0 mph 50% 0.00 in
13:17 52.5 °F 33.9 °F 30.39 in NE 20.0 mph 20.0 mph 49% 0.00 in
13:23 52.5 °F 33.4 °F 30.39 in North 9.0 mph 15.0 mph 48% 0.00 in
13:28 52.8 °F 32.6 °F 30.39 in North 15.0 mph 19.0 mph 46% 0.00 in
13:33 52.8 °F 32.6 °F 30.39 in NNE 7.0 mph 14.0 mph 46% 0.00 in
13:38 53.3 °F 32.5 °F 30.39 in NNE 7.0 mph 15.0 mph 45% 0.00 in
13:43 53.7 °F 34.5 °F 30.38 in NE 6.0 mph 15.0 mph 48% 0.00 in
13:48 53.6 °F 34.4 °F 30.38 in North 9.0 mph 14.0 mph 48% 0.00 in
13:53 53.9 °F 33.1 °F 30.38 in NNW 8.0 mph 17.0 mph 45% 0.00 in
13:58 54.3 °F 32.9 °F 30.38 in NNW 10.0 mph 19.0 mph 44% 0.00 in
14:03 54.6 °F 35.3 °F 30.38 in North 10.0 mph 13.0 mph 48% 0.00 in
14:08 55.0 °F 32.3 °F 30.38 in North 17.0 mph 20.0 mph 42% 0.00 in
14:13 55.0 °F 32.9 °F 30.38 in NNW 14.0 mph 16.0 mph 43% 0.00 in
14:18 55.3 °F 34.3 °F 30.37 in North 11.0 mph 11.0 mph 45% 0.00 in
14:23 55.4 °F 33.3 °F 30.38 in NW 8.0 mph 16.0 mph 43% 0.00 in
14:28 56.1 °F 35.6 °F 30.37 in NNE 8.0 mph 10.0 mph 46% 0.00 in
14:33 56.1 °F 33.3 °F 30.37 in NNE 10.0 mph 15.0 mph 42% 0.00 in
14:38 55.7 °F 33.0 °F 30.37 in North 11.0 mph 18.0 mph 42% 0.00 in
14:43 56.1 °F 32.7 °F 30.37 in North 8.0 mph 14.0 mph 41% 0.00 in
14:48 56.3 °F 32.9 °F 30.36 in NNE 11.0 mph 16.0 mph 41% 0.00 in
14:53 56.3 °F 31.7 °F 30.36 in NNW 9.0 mph 15.0 mph 39% 0.00 in
14:58 57.0 °F 34.8 °F 30.37 in NNW 8.0 mph 17.0 mph 43% 0.00 in
15:03 56.9 °F 32.8 °F 30.36 in NNE 12.0 mph 16.0 mph 40% 0.00 in
15:08 57.1 °F 33.0 °F 30.36 in NNE 12.0 mph 17.0 mph 40% 0.00 in
15:13 57.2 °F 31.8 °F 30.37 in North 16.0 mph 16.0 mph 38% 0.00 in
15:18 56.9 °F 30.9 °F 30.37 in North 13.0 mph 15.0 mph 37% 0.00 in
15:23 57.4 °F 32.0 °F 30.37 in North 9.0 mph 13.0 mph 38% 0.00 in
15:28 57.4 °F 31.4 °F 30.37 in NNW 14.0 mph 18.0 mph 37% 0.00 in
15:33 57.3 °F 31.9 °F 30.36 in North 13.0 mph 13.0 mph 38% 0.00 in
15:38 57.7 °F 31.6 °F 30.36 in NNW 12.0 mph 15.0 mph 37% 0.00 in
15:43 57.6 °F 30.2 °F 30.36 in NW 9.0 mph 17.0 mph 35% 0.00 in
15:48 57.6 °F 31.5 °F 30.35 in NE 13.0 mph 13.0 mph 37% 0.00 in
15:53 57.4 °F 30.0 °F 30.36 in NNE 11.0 mph 15.0 mph 35% 0.00 in
15:58 57.3 °F 31.3 °F 30.36 in NNW 6.0 mph 12.0 mph 37% 0.00 in
16:03 57.1 °F 29.7 °F 30.36 in NNE 12.0 mph 19.0 mph 35% 0.00 in
16:08 57.4 °F 30.7 °F 30.36 in NNW 11.0 mph 14.0 mph 36% 0.00 in
16:13 57.6 °F 31.5 °F 30.35 in NNW 13.0 mph 20.0 mph 37% 0.00 in
16:18 57.7 °F 30.3 °F 30.35 in NNE 13.0 mph 16.0 mph 35% 0.00 in
16:23 57.4 °F 29.3 °F 30.35 in NNE 12.0 mph 16.0 mph 34% 0.00 in
16:28 57.3 °F 29.9 °F 30.35 in NNW 6.0 mph 17.0 mph 35% 0.00 in
16:33 57.8 °F 30.4 °F 30.36 in NNE 4.0 mph 12.0 mph 35% 0.00 in
16:39 58.0 °F 30.5 °F 30.36 in North 9.0 mph 15.0 mph 35% 0.00 in
16:44 58.2 °F 31.4 °F 30.36 in NNW 10.0 mph 13.0 mph 36% 0.00 in
16:49 58.1 °F 29.9 °F 30.36 in NNE 6.0 mph 16.0 mph 34% 0.00 in
16:54 58.1 °F 30.6 °F 30.36 in North 12.0 mph 17.0 mph 35% 0.00 in
16:59 58.1 °F 29.2 °F 30.36 in NNE 12.0 mph 13.0 mph 33% 0.00 in
17:04 58.0 °F 29.1 °F 30.36 in NNW 7.0 mph 15.0 mph 33% 0.00 in
17:09 58.0 °F 31.2 °F 30.36 in North 11.0 mph 11.0 mph 36% 0.00 in
17:14 57.8 °F 29.6 °F 30.36 in NE 10.0 mph 14.0 mph 34% 0.00 in
17:19 57.6 °F 28.7 °F 30.36 in NNE 6.0 mph 13.0 mph 33% 0.00 in
17:24 57.7 °F 28.8 °F 30.37 in NNE 7.0 mph 10.0 mph 33% 0.00 in
17:29 57.8 °F 30.4 °F 30.38 in NW 7.0 mph 11.0 mph 35% 0.00 in
17:34 57.8 °F 30.4 °F 30.38 in NNE 7.0 mph 9.0 mph 35% 0.00 in
17:39 57.6 °F 29.5 °F 30.38 in North 5.0 mph 10.0 mph 34% 0.00 in
17:44 57.5 °F 30.1 °F 30.37 in North 8.0 mph 10.0 mph 35% 0.00 in
17:49 57.4 °F 31.4 °F 30.37 in North 8.0 mph 11.0 mph 37% 0.00 in
17:54 57.2 °F 29.8 °F 30.37 in North 6.0 mph 10.0 mph 35% 0.00 in
17:59 57.0 °F 29.6 °F 30.37 in NNE 5.0 mph 8.0 mph 35% 0.00 in
18:04 56.8 °F 29.5 °F 30.37 in NE 7.0 mph 9.0 mph 35% 0.00 in
18:09 56.7 °F 30.1 °F 30.36 in North 6.0 mph 9.0 mph 36% 0.00 in
18:14 56.4 °F 28.4 °F 30.37 in North 5.0 mph 9.0 mph 34% 0.00 in
18:19 56.1 °F 28.8 °F 30.37 in North 7.0 mph 7.0 mph 35% 0.00 in
18:24 55.8 °F 29.3 °F 30.37 in WNW 6.0 mph 10.0 mph 36% 0.00 in
18:29 55.1 °F 29.3 °F 30.37 in North 6.0 mph 7.0 mph 37% 0.00 in
18:34 54.6 °F 29.5 °F 30.37 in North 6.0 mph 11.0 mph 38% 0.00 in
18:39 54.2 °F 28.5 °F 30.37 in NW 5.0 mph 9.0 mph 37% 0.00 in
18:44 53.9 °F 28.9 °F 30.37 in NNW 5.0 mph 11.0 mph 38% 0.00 in
18:49 53.3 °F 29.0 °F 30.37 in NNE 6.0 mph 11.0 mph 39% 0.00 in
18:54 52.9 °F 29.2 °F 30.37 in North 5.0 mph 9.0 mph 40% 0.00 in
18:59 52.7 °F 29.1 °F 30.37 in NNW 4.0 mph 9.0 mph 40% 0.00 in
19:04 52.4 °F 28.8 °F 30.37 in NNW 4.0 mph 8.0 mph 40% 0.00 in
19:09 52.0 °F 28.5 °F 30.37 in NNW 3.0 mph 8.0 mph 40% 0.00 in
19:14 51.8 °F 28.9 °F 30.37 in North 5.0 mph 6.0 mph 41% 0.00 in
19:19 51.5 °F 28.6 °F 30.37 in NNW 3.0 mph 7.0 mph 41% 0.00 in
19:24 51.4 °F 29.1 °F 30.37 in NNW 5.0 mph 10.0 mph 42% 0.00 in
19:29 51.1 °F 29.4 °F 30.37 in NNE 4.0 mph 6.0 mph 43% 0.00 in
19:34 50.8 °F 29.7 °F 30.37 in North 2.0 mph 6.0 mph 44% 0.00 in
19:39 50.6 °F 29.5 °F 30.38 in North 4.0 mph 4.0 mph 44% 0.00 in
19:45 50.3 °F 29.8 °F 30.38 in NNW 3.0 mph 7.0 mph 45% 0.00 in
19:50 50.3 °F 29.8 °F 30.38 in NNW 4.0 mph 7.0 mph 45% 0.00 in
19:55 50.2 °F 29.1 °F 30.38 in North 4.0 mph 8.0 mph 44% 0.00 in
20:00 50.1 °F 29.0 °F 30.38 in NNW 3.0 mph 7.0 mph 44% 0.00 in
20:05 50.1 °F 28.5 °F 30.38 in NE 6.0 mph 8.0 mph 43% 0.00 in
20:10 50.1 °F 28.5 °F 30.38 in North 5.0 mph 9.0 mph 43% 0.00 in
20:15 50.0 °F 28.4 °F 30.39 in North 6.0 mph 8.0 mph 43% 0.00 in
20:20 49.6 °F 28.6 °F 30.39 in North 4.0 mph 6.0 mph 44% 0.00 in
20:25 49.3 °F 28.3 °F 30.39 in NNE 3.0 mph 6.0 mph 44% 0.00 in
20:30 49.1 °F 28.1 °F 30.39 in NNW 3.0 mph 7.0 mph 44% 0.00 in
20:35 48.9 °F 28.0 °F 30.39 in NNE 4.0 mph 6.0 mph 44% 0.00 in
20:36 48.9 °F 28.0 °F 30.39 in NNE 4.0 mph 6.0 mph 44% 0.00 in
20:41 48.8 °F 27.9 °F 30.39 in NNE 4.0 mph 7.0 mph 44% 0.00 in
20:46 48.7 °F 28.3 °F 30.39 in NNE 3.0 mph 4.0 mph 45% 0.00 in
20:51 48.4 °F 28.0 °F 30.40 in North 3.0 mph 4.0 mph 45% 0.00 in
20:56 48.0 °F 28.2 °F 30.40 in North 4.0 mph 4.0 mph 46% 0.00 in
21:01 47.7 °F 28.0 °F 30.40 in NNE 3.0 mph 4.0 mph 46% 0.00 in
21:06 47.5 °F 27.8 °F 30.40 in NNW 3.0 mph 5.0 mph 46% 0.00 in
21:11 47.5 °F 27.8 °F 30.40 in North 3.0 mph 4.0 mph 46% 0.00 in
21:16 47.3 °F 27.6 °F 30.40 in North 4.0 mph 5.0 mph 46% 0.00 in
21:21 47.1 °F 27.9 °F 30.40 in North 5.0 mph 5.0 mph 47% 0.00 in
21:26 46.8 °F 28.2 °F 30.40 in North 4.0 mph 6.0 mph 48% 0.00 in
21:31 46.7 °F 28.1 °F 30.40 in North 3.0 mph 5.0 mph 48% 0.00 in
21:36 46.6 °F 28.0 °F 30.40 in NNW 5.0 mph 6.0 mph 48% 0.00 in
21:41 46.4 °F 27.8 °F 30.40 in North 6.0 mph 6.0 mph 48% 0.00 in
21:46 46.5 °F 27.9 °F 30.40 in North 4.0 mph 7.0 mph 48% 0.00 in
21:51 46.4 °F 27.8 °F 30.40 in NNW 4.0 mph 7.0 mph 48% 0.00 in
21:56 46.1 °F 28.0 °F 30.40 in North 4.0 mph 5.0 mph 49% 0.00 in
22:01 45.9 °F 27.8 °F 30.40 in North 6.0 mph 7.0 mph 49% 0.00 in
22:06 45.7 °F 27.6 °F 30.40 in NNE 4.0 mph 7.0 mph 49% 0.00 in
22:11 45.6 °F 27.6 °F 30.40 in NNW 5.0 mph 7.0 mph 49% 0.00 in
22:16 45.5 °F 27.5 °F 30.40 in North 6.0 mph 8.0 mph 49% 0.00 in
22:21 45.4 °F 27.4 °F 30.40 in North 6.0 mph 7.0 mph 49% 0.00 in
22:26 45.4 °F 27.4 °F 30.40 in NNE 5.0 mph 7.0 mph 49% 0.00 in
22:31 45.2 °F 27.2 °F 30.40 in North 5.0 mph 8.0 mph 49% 0.00 in
22:37 45.2 °F 27.2 °F 30.40 in NNE 4.0 mph 9.0 mph 49% 0.00 in
22:42 45.0 °F 27.0 °F 30.40 in NNE 3.0 mph 6.0 mph 49% 0.00 in
22:47 44.9 °F 26.9 °F 30.40 in NNW 4.0 mph 5.0 mph 49% 0.00 in
22:52 44.8 °F 26.8 °F 30.40 in NNW 3.0 mph 7.0 mph 49% 0.00 in
22:57 44.8 °F 26.8 °F 30.40 in North 7.0 mph 8.0 mph 49% 0.00 in
23:02 44.9 °F 26.4 °F 30.40 in NNE 4.0 mph 9.0 mph 48% 0.00 in
23:07 45.0 °F 26.5 °F 30.40 in NNE 3.0 mph 7.0 mph 48% 0.00 in
23:12 44.9 °F 26.4 °F 30.40 in NNE 4.0 mph 6.0 mph 48% 0.00 in
23:17 44.8 °F 26.3 °F 30.40 in NNE 5.0 mph 6.0 mph 48% 0.00 in
23:22 44.7 °F 26.2 °F 30.41 in North 5.0 mph 7.0 mph 48% 0.00 in
23:27 44.5 °F 26.0 °F 30.41 in NNE 4.0 mph 6.0 mph 48% 0.00 in
23:32 44.2 °F 26.3 °F 30.41 in NNE 3.0 mph 4.0 mph 49% 0.00 in
23:37 44.0 °F 26.1 °F 30.42 in NNE 3.0 mph 5.0 mph 49% 0.00 in
23:42 44.1 °F 26.2 °F 30.42 in North 4.0 mph 7.0 mph 49% 0.00 in
23:47 43.8 °F 25.9 °F 30.42 in NNE 6.0 mph 7.0 mph 49% 0.00 in
23:52 43.6 °F 25.7 °F 30.41 in NNE 3.0 mph 7.0 mph 49% 0.00 in
23:57 43.7 °F 25.8 °F 30.41 in North 5.0 mph 8.0 mph 49% 0.00 in
Compliments of Weather Underground